createdAt,value
2018-09-11T00:00:47.325Z,950.26
2018-09-11T00:01:51.891Z,950.27
2018-09-11T00:02:59.946Z,950.27
2018-09-11T00:04:08.017Z,950.24
2018-09-11T00:05:16.367Z,950.26
2018-09-11T00:06:24.442Z,950.24
2018-09-11T00:07:32.403Z,950.21
2018-09-11T00:08:40.476Z,950.18
2018-09-11T00:09:48.580Z,950.23
2018-09-11T00:10:56.614Z,950.20
2018-09-11T00:12:04.754Z,950.22
2018-09-11T00:13:13.086Z,950.21
2018-09-11T00:14:20.786Z,950.21
2018-09-11T00:15:28.849Z,950.22
2018-09-11T00:16:36.915Z,950.19
2018-09-11T00:17:45.026Z,950.21
2018-09-11T00:18:53.025Z,950.19
2018-09-11T00:20:01.109Z,950.20
2018-09-11T00:21:09.163Z,950.19
2018-09-11T00:22:17.234Z,950.22
2018-09-11T00:23:25.752Z,950.20
2018-09-11T00:24:33.334Z,950.20
2018-09-11T00:25:41.672Z,950.20
2018-09-11T00:26:49.691Z,950.20
2018-09-11T00:27:57.846Z,950.21
2018-09-11T00:29:05.912Z,950.24
2018-09-11T00:30:13.926Z,950.22
2018-09-11T00:31:21.934Z,950.22
2018-09-11T00:32:30.133Z,950.19
2018-09-11T00:33:38.067Z,950.22
2018-09-11T00:34:46.221Z,950.22
2018-09-11T00:35:54.202Z,950.20
2018-09-11T00:37:02.306Z,950.17
2018-09-11T00:38:10.318Z,950.21
2018-09-11T00:39:18.392Z,950.18
2018-09-11T00:40:27.022Z,950.16
2018-09-11T00:41:34.726Z,950.18
2018-09-11T00:42:42.808Z,950.13
2018-09-11T00:43:50.842Z,950.17
2018-09-11T00:44:58.919Z,950.15
2018-09-11T00:46:07.672Z,950.14
2018-09-11T00:47:15.037Z,950.15
2018-09-11T00:48:23.072Z,950.17
2018-09-11T00:49:31.160Z,950.15
2018-09-11T00:50:40.284Z,950.15
2018-09-11T00:51:47.444Z,950.17
2018-09-11T00:52:55.405Z,950.17
2018-09-11T00:54:03.401Z,950.20
2018-09-11T00:55:11.471Z,950.20
2018-09-11T00:56:19.535Z,950.20
2018-09-11T00:57:27.714Z,950.23
2018-09-11T00:58:35.668Z,950.27
2018-09-11T00:59:43.731Z,950.28
2018-09-11T01:00:51.901Z,950.32
2018-09-11T01:01:59.906Z,950.35
2018-09-11T01:03:08.012Z,950.32
2018-09-11T01:04:15.982Z,950.34
2018-09-11T01:05:24.042Z,950.34
2018-09-11T01:06:32.110Z,950.35
2018-09-11T01:07:40.161Z,950.37
2018-09-11T01:08:48.319Z,950.38
2018-09-11T01:09:56.298Z,950.36
2018-09-11T01:11:04.350Z,950.40
2018-09-11T01:12:12.410Z,950.38
2018-09-11T01:13:20.619Z,950.39
2018-09-11T01:14:28.652Z,950.39
2018-09-11T01:15:36.620Z,950.40
2018-09-11T01:16:44.768Z,950.36
2018-09-11T01:17:53.296Z,950.35
2018-09-11T01:19:00.815Z,950.41
2018-09-11T01:20:08.988Z,950.39
2018-09-11T01:21:17.292Z,950.38
2018-09-11T01:22:25.003Z,950.37
2018-09-11T01:23:33.133Z,950.37
2018-09-11T01:24:41.890Z,950.35
2018-09-11T01:25:49.279Z,950.38
2018-09-11T01:26:57.453Z,950.36
2018-09-11T01:28:05.520Z,950.34
2018-09-11T01:29:13.609Z,950.34
2018-09-11T01:30:21.736Z,950.30
2018-09-11T01:31:29.808Z,950.30
2018-09-11T01:32:37.784Z,950.33
2018-09-11T01:33:45.829Z,950.29
2018-09-11T01:34:54.115Z,950.31
2018-09-11T01:36:02.412Z,950.30
2018-09-11T01:37:15.686Z,950.33
2018-09-11T01:38:18.502Z,950.28
2018-09-11T01:39:26.544Z,950.27
2018-09-11T01:40:34.631Z,950.26
2018-09-11T01:41:42.665Z,950.21
2018-09-11T01:42:50.835Z,950.21
2018-09-11T01:43:59.072Z,950.23
2018-09-11T01:45:06.902Z,950.21
2018-09-11T01:46:15.039Z,950.20
2018-09-11T01:47:22.989Z,950.13
2018-09-11T01:48:31.072Z,950.10
2018-09-11T01:49:39.118Z,950.12
2018-09-11T01:50:47.288Z,950.14
2018-09-11T01:51:55.256Z,950.13
2018-09-11T01:53:03.410Z,950.15
2018-09-11T01:54:11.374Z,950.14
2018-09-11T01:55:19.436Z,950.12
2018-09-11T01:56:33.876Z,950.09
2018-09-11T01:57:41.218Z,950.13
2018-09-11T01:58:43.824Z,950.10
2018-09-11T01:59:51.898Z,950.09
2018-09-11T02:00:59.964Z,950.09
2018-09-11T02:02:08.004Z,950.07
2018-09-11T02:03:16.183Z,950.10
2018-09-11T02:04:24.146Z,950.09
2018-09-11T02:05:32.294Z,950.05
2018-09-11T02:06:40.370Z,950.04
2018-09-11T02:07:48.336Z,950.07
2018-09-11T02:08:56.494Z,950.03
2018-09-11T02:10:04.503Z,950.04
2018-09-11T02:11:12.507Z,950.06
2018-09-11T02:12:20.600Z,950.04
2018-09-11T02:13:28.651Z,950.05
2018-09-11T02:14:36.809Z,950.06
2018-09-11T02:15:44.771Z,950.10
2018-09-11T02:16:53.090Z,950.12
2018-09-11T02:18:00.903Z,950.10
2018-09-11T02:19:08.968Z,950.13
2018-09-11T02:20:17.121Z,950.15
2018-09-11T02:21:25.093Z,950.20
2018-09-11T02:22:33.274Z,950.23
2018-09-11T02:23:41.226Z,950.20
2018-09-11T02:24:49.278Z,950.17
2018-09-11T02:25:57.460Z,950.19
2018-09-11T02:27:05.415Z,950.18
2018-09-11T02:28:13.472Z,950.16
2018-09-11T02:29:21.544Z,950.22
2018-09-11T02:30:29.612Z,950.16
2018-09-11T02:31:37.764Z,950.18
2018-09-11T02:32:45.738Z,950.21
2018-09-11T02:33:53.792Z,950.14
2018-09-11T02:35:01.860Z,950.16
2018-09-11T02:36:09.971Z,950.10
2018-09-11T02:37:18.124Z,950.13
2018-09-11T02:38:26.126Z,950.11
2018-09-11T02:39:34.101Z,950.15
2018-09-11T02:40:42.170Z,950.12
2018-09-11T02:41:50.424Z,950.13
2018-09-11T02:42:58.596Z,950.06
2018-09-11T02:44:06.555Z,950.08
2018-09-11T02:45:14.627Z,950.11
2018-09-11T02:46:22.731Z,950.08
2018-09-11T02:47:30.834Z,950.09
2018-09-11T02:48:38.844Z,950.10
2018-09-11T02:49:47.081Z,950.09
2018-09-11T02:50:55.140Z,950.07
2018-09-11T02:52:03.185Z,950.02
2018-09-11T02:53:11.344Z,950.02
2018-09-11T02:54:24.685Z,950.04
2018-09-11T02:55:27.401Z,950.02
2018-09-11T02:56:36.520Z,950.04
2018-09-11T02:57:43.507Z,950.03
2018-09-11T02:58:51.681Z,950.03
2018-09-11T02:59:59.651Z,950.04
2018-09-11T03:01:07.816Z,950.05
2018-09-11T03:02:15.769Z,950.07
2018-09-11T03:03:24.137Z,950.06
2018-09-11T03:04:31.998Z,950.07
2018-09-11T03:05:39.956Z,950.09
2018-09-11T03:06:48.116Z,950.10
2018-09-11T03:07:56.091Z,950.15
2018-09-11T03:09:04.147Z,950.13
2018-09-11T03:10:12.305Z,950.13
2018-09-11T03:11:20.280Z,950.14
2018-09-11T03:12:28.347Z,950.15
2018-09-11T03:13:36.409Z,950.16
2018-09-11T03:14:44.467Z,950.13
2018-09-11T03:15:52.564Z,950.14
2018-09-11T03:17:00.591Z,950.14
2018-09-11T03:18:08.657Z,950.15
2018-09-11T03:19:16.707Z,950.14
2018-09-11T03:20:24.786Z,950.08
2018-09-11T03:21:32.937Z,950.16
2018-09-11T03:22:40.908Z,950.09
2018-09-11T03:23:48.964Z,950.07
2018-09-11T03:24:57.030Z,950.11
2018-09-11T03:26:05.333Z,950.09
2018-09-11T03:27:13.492Z,950.12
2018-09-11T03:28:21.215Z,950.11
2018-09-11T03:29:29.284Z,950.12
2018-09-11T03:30:37.354Z,950.14
2018-09-11T03:31:45.401Z,950.12
2018-09-11T03:32:53.907Z,950.13
2018-09-11T03:34:01.525Z,950.15
2018-09-11T03:35:09.594Z,950.11
2018-09-11T03:36:17.650Z,950.14
2018-09-11T03:37:25.747Z,950.10
2018-09-11T03:38:33.786Z,950.11
2018-09-11T03:39:41.890Z,950.10
2018-09-11T03:40:49.915Z,950.10
2018-09-11T03:41:58.065Z,950.14
2018-09-11T03:43:06.331Z,950.12
2018-09-11T03:44:14.602Z,950.11
2018-09-11T03:45:22.369Z,950.12
2018-09-11T03:46:30.466Z,950.12
2018-09-11T03:47:38.835Z,950.17
2018-09-11T03:48:46.608Z,950.19
2018-09-11T03:49:54.620Z,950.16
2018-09-11T03:51:02.656Z,950.20
2018-09-11T03:52:10.741Z,950.17
2018-09-11T03:53:19.953Z,950.17
2018-09-11T03:54:26.908Z,950.19
2018-09-11T03:55:34.934Z,950.16
2018-09-11T03:57:54.187Z,950.16
2018-09-11T03:59:02.235Z,950.16
2018-09-11T04:00:10.216Z,950.14
2018-09-11T04:01:18.276Z,950.18
2018-09-11T04:02:26.324Z,950.18
2018-09-11T04:03:34.393Z,950.18
2018-09-11T04:04:42.739Z,950.20
2018-09-11T04:05:50.824Z,950.18
2018-09-11T04:06:58.793Z,950.16
2018-09-11T04:08:06.860Z,950.22
2018-09-11T04:09:14.916Z,950.21
2018-09-11T04:10:23.037Z,950.21
2018-09-11T04:11:31.042Z,950.21
2018-09-11T04:12:39.194Z,950.21
2018-09-11T04:13:47.177Z,950.24
2018-09-11T04:14:55.229Z,950.24
2018-09-11T04:16:03.364Z,950.27
2018-09-11T04:17:11.344Z,950.26
2018-09-11T04:18:19.687Z,950.29
2018-09-11T04:19:27.477Z,950.30
2018-09-11T04:20:35.539Z,950.32
2018-09-11T04:21:43.697Z,950.34
2018-09-11T04:22:51.835Z,950.33
2018-09-11T04:23:59.728Z,950.33
2018-09-11T04:25:07.884Z,950.35
2018-09-11T04:26:16.235Z,950.38
2018-09-11T04:27:24.027Z,950.37
2018-09-11T04:28:31.970Z,950.40
2018-09-11T04:29:40.062Z,950.44
2018-09-11T04:30:48.112Z,950.38
2018-09-11T04:31:56.170Z,950.44
2018-09-11T04:33:05.208Z,950.47
2018-09-11T04:34:12.276Z,950.41
2018-09-11T04:35:20.362Z,950.42
2018-09-11T04:36:29.493Z,950.43
2018-09-11T04:37:36.564Z,950.41
2018-09-11T04:38:45.371Z,950.42
2018-09-11T04:39:52.589Z,950.41
2018-09-11T04:41:00.662Z,950.38
2018-09-11T04:42:08.721Z,950.39
2018-09-11T04:43:22.058Z,950.42
2018-09-11T04:44:24.897Z,950.38
2018-09-11T04:45:32.903Z,950.39
2018-09-11T04:46:40.989Z,950.37
2018-09-11T04:47:49.039Z,950.37
2018-09-11T04:48:57.202Z,950.38
2018-09-11T04:50:05.166Z,950.37
2018-09-11T04:51:13.210Z,950.41
2018-09-11T04:52:21.293Z,950.40
2018-09-11T04:53:29.348Z,950.43
2018-09-11T04:54:37.518Z,950.45
2018-09-11T04:55:45.785Z,950.46
2018-09-11T04:56:53.548Z,950.48
2018-09-11T04:58:01.697Z,950.50
2018-09-11T04:59:09.665Z,950.54
2018-09-11T05:00:17.829Z,950.53
2018-09-11T05:01:25.795Z,950.53
2018-09-11T05:02:34.412Z,950.51
2018-09-11T05:03:41.917Z,950.52
2018-09-11T05:04:49.987Z,950.53
2018-09-11T05:05:58.145Z,950.59
2018-09-11T05:07:06.108Z,950.63
2018-09-11T05:08:14.175Z,950.61
2018-09-11T05:09:22.244Z,950.63
2018-09-11T05:10:30.397Z,950.65
2018-09-11T05:11:38.455Z,950.66
2018-09-11T05:12:46.576Z,950.67
2018-09-11T05:13:54.489Z,950.68
2018-09-11T05:15:02.527Z,950.68
2018-09-11T05:16:10.621Z,950.69
2018-09-11T05:17:18.996Z,950.71
2018-09-11T05:18:26.949Z,950.74
2018-09-11T05:19:35.210Z,950.73
2018-09-11T05:20:43.047Z,950.76
2018-09-11T05:21:51.141Z,950.75
2018-09-11T05:22:59.753Z,950.78
2018-09-11T05:24:07.258Z,950.78
2018-09-11T05:25:15.573Z,950.77
2018-09-11T05:26:23.372Z,950.76
2018-09-11T05:27:31.591Z,950.81
2018-09-11T05:28:39.605Z,950.78
2018-09-11T05:29:47.888Z,950.76
2018-09-11T05:30:55.840Z,950.81
2018-09-11T05:32:03.897Z,950.81
2018-09-11T05:33:12.320Z,950.81
2018-09-11T05:34:20.365Z,950.80
2018-09-11T05:35:28.103Z,950.83
2018-09-11T05:36:36.158Z,950.83
2018-09-11T05:37:44.492Z,950.83
2018-09-11T05:38:52.744Z,950.87
2018-09-11T05:40:00.745Z,950.85
2018-09-11T05:41:09.885Z,950.91
2018-09-11T05:42:16.884Z,950.92
2018-09-11T05:43:25.034Z,950.98
2018-09-11T05:44:33.063Z,951.00
2018-09-11T05:45:41.195Z,950.99
2018-09-11T05:46:49.127Z,951.04
2018-09-11T05:47:57.197Z,951.07
2018-09-11T05:49:05.356Z,951.06
2018-09-11T05:50:13.304Z,951.07
2018-09-11T05:51:21.376Z,951.07
2018-09-11T05:52:29.447Z,951.04
2018-09-11T05:53:37.513Z,951.06
2018-09-11T05:54:45.985Z,951.04
2018-09-11T05:55:53.644Z,951.07
2018-09-11T05:57:01.697Z,951.06
2018-09-11T05:58:10.044Z,951.06
2018-09-11T05:59:17.825Z,951.07
2018-09-11T06:00:25.983Z,951.07
2018-09-11T06:01:33.960Z,951.06
2018-09-11T06:02:42.090Z,951.08
2018-09-11T06:03:50.076Z,951.09
2018-09-11T06:04:58.141Z,951.07
2018-09-11T06:06:06.312Z,951.12
2018-09-11T06:07:14.277Z,951.17
2018-09-11T06:08:22.333Z,951.17
2018-09-11T06:09:30.405Z,951.15
2018-09-11T06:10:40.746Z,951.19
2018-09-11T06:11:47.736Z,951.26
2018-09-11T06:12:55.202Z,951.23
2018-09-11T06:14:03.240Z,951.25
2018-09-11T06:15:11.339Z,951.31
2018-09-11T06:16:19.593Z,951.27
2018-09-11T06:17:27.542Z,951.35
2018-09-11T06:18:35.516Z,951.34
2018-09-11T06:19:43.790Z,951.37
2018-09-11T06:20:52.053Z,951.41
2018-09-11T06:22:00.115Z,951.47
2018-09-11T06:23:08.534Z,951.46
2018-09-11T06:24:16.527Z,951.46
2018-09-11T06:25:26.127Z,951.55
2018-09-11T06:26:34.375Z,951.54
2018-09-11T06:27:42.448Z,951.54
2018-09-11T06:28:50.609Z,951.52
2018-09-11T06:29:58.574Z,951.51
2018-09-11T06:32:17.413Z,951.49
2018-09-11T06:33:25.389Z,951.52
2018-09-11T06:34:33.543Z,951.48
2018-09-11T06:35:41.513Z,951.51
2018-09-11T06:36:49.859Z,951.49
2018-09-11T06:37:57.656Z,951.50
2018-09-11T06:39:05.715Z,951.49
2018-09-11T06:40:13.865Z,951.47
2018-09-11T06:41:21.853Z,951.52
2018-09-11T06:42:30.119Z,951.51
2018-09-11T06:43:38.177Z,951.52
2018-09-11T06:44:46.257Z,951.55
2018-09-11T06:45:54.411Z,951.59
2018-09-11T06:47:02.445Z,951.59
2018-09-11T06:48:10.767Z,951.60
2018-09-11T06:49:18.701Z,951.59
2018-09-11T06:50:26.763Z,951.69
2018-09-11T06:51:34.938Z,951.72
2018-09-11T06:52:42.906Z,951.71
2018-09-11T06:53:50.958Z,951.75
2018-09-11T06:54:59.084Z,951.67
2018-09-11T06:56:07.099Z,951.75
2018-09-11T06:57:15.260Z,951.89
2018-09-11T06:58:23.205Z,951.88
2018-09-11T06:59:31.342Z,952.15
2018-09-11T07:00:39.431Z,952.21
2018-09-11T07:03:03.037Z,952.60
2018-09-11T07:04:11.025Z,953.61
2018-09-11T07:05:19.100Z,953.82
2018-09-11T07:06:27.162Z,953.66
2018-09-11T07:07:35.326Z,953.85
2018-09-11T07:08:43.285Z,953.67
2018-09-11T07:09:51.475Z,953.54
2018-09-11T07:10:59.434Z,954.13
2018-09-11T07:12:07.494Z,954.02
2018-09-11T07:13:15.680Z,954.07
2018-09-11T07:15:36.124Z,953.82
2018-09-11T07:16:44.224Z,953.67
2018-09-11T07:17:52.369Z,953.48
2018-09-11T07:20:18.136Z,953.45
2018-09-11T07:21:25.668Z,953.49
2018-09-11T07:22:33.751Z,953.52
2018-09-11T07:26:09.584Z,953.60
2018-09-11T07:27:17.829Z,954.09
2018-09-11T07:28:26.212Z,954.52
2018-09-11T07:30:45.474Z,954.35
2018-09-11T07:31:53.562Z,954.31
2018-09-11T07:34:12.407Z,954.35
2018-09-11T07:35:20.395Z,954.43
2018-09-11T07:36:30.169Z,954.33
2018-09-11T07:40:06.917Z,954.32
2018-09-11T07:41:14.888Z,954.53
2018-09-11T07:42:22.960Z,954.83
2018-09-11T07:44:39.099Z,955.31
2018-09-11T07:45:47.283Z,955.65
2018-09-11T07:46:55.266Z,955.75
2018-09-11T07:48:03.331Z,955.96
2018-09-11T07:49:11.412Z,956.47
2018-09-11T07:50:19.745Z,956.97
2018-09-11T07:51:29.878Z,957.53
2018-09-11T07:52:37.955Z,958.75
2018-09-11T07:53:45.922Z,958.89
2018-09-11T07:54:55.821Z,958.87
2018-09-11T07:56:04.218Z,960.12
2018-09-11T07:57:12.049Z,961.14
2018-09-11T07:58:20.038Z,961.80
2018-09-11T07:59:28.130Z,962.07
2018-09-11T08:00:36.596Z,962.91
2018-09-11T08:01:44.476Z,963.83
2018-09-11T08:02:52.602Z,965.69
2018-09-11T08:04:00.623Z,963.89
2018-09-11T08:05:08.810Z,964.83
2018-09-11T08:06:16.787Z,965.53
2018-09-11T08:07:24.864Z,965.95
2018-09-11T08:08:32.921Z,967.02
2018-09-11T08:09:41.110Z,968.59
2018-09-11T08:10:49.093Z,969.41
2018-09-11T08:11:57.176Z,970.96
2018-09-11T08:13:05.342Z,972.67
2018-09-11T08:14:13.316Z,973.37
2018-09-11T08:15:21.405Z,972.77
2018-09-11T08:16:29.606Z,972.95
2018-09-11T08:17:37.835Z,973.80
2018-09-11T08:18:45.633Z,974.69
2018-09-11T08:19:53.882Z,974.95
2018-09-11T08:21:01.799Z,974.53
2018-09-11T08:22:09.861Z,974.75
2018-09-11T08:23:18.230Z,973.81
2018-09-11T08:24:26.240Z,975.04
2018-09-11T08:25:34.297Z,976.75
2018-09-11T08:26:42.485Z,978.86
2018-09-11T08:27:50.540Z,980.41
2018-09-11T08:28:58.733Z,980.57
2018-09-11T08:30:07.022Z,979.71
2018-09-11T08:31:15.196Z,979.51
2018-09-11T08:32:23.232Z,980.50
2018-09-11T08:33:31.240Z,980.22
2018-09-11T08:34:39.677Z,981.49
2018-09-11T08:35:48.435Z,980.59
2018-09-11T08:36:55.475Z,979.90
2018-09-11T08:38:03.646Z,982.35
2018-09-11T08:39:11.623Z,976.67
2018-09-11T08:40:19.713Z,957.56
2018-09-11T08:41:27.780Z,952.30
2018-09-11T08:42:35.876Z,952.35
2018-09-11T08:43:44.063Z,952.24
2018-09-11T08:44:52.011Z,952.22
2018-09-11T08:48:28.150Z,952.23
2018-09-11T08:49:36.331Z,952.21
2018-09-11T08:50:44.515Z,952.22
2018-09-11T08:51:52.378Z,952.19
2018-09-11T08:53:00.452Z,952.20
2018-09-11T08:54:09.727Z,952.20
2018-09-11T08:55:17.894Z,952.14
2018-09-11T08:56:26.227Z,952.14
2018-09-11T08:57:33.950Z,952.07
2018-09-11T08:58:42.071Z,952.10
2018-09-11T09:01:01.281Z,952.07
2018-09-11T09:02:09.252Z,952.03
2018-09-11T09:03:17.429Z,952.05
2018-09-11T09:04:25.424Z,952.06
2018-09-11T09:05:33.491Z,952.07
2018-09-11T09:06:41.653Z,952.06
2018-09-11T09:07:49.629Z,952.03
2018-09-11T09:08:57.696Z,952.03
2018-09-11T09:10:05.796Z,952.02
2018-09-11T09:11:13.835Z,951.95
2018-09-11T09:12:21.997Z,951.98
2018-09-11T09:13:30.439Z,951.98
2018-09-11T09:15:51.973Z,951.95
2018-09-11T09:17:00.051Z,951.91
2018-09-11T09:18:08.192Z,951.91
2018-09-11T09:19:16.275Z,951.91
2018-09-11T09:20:24.254Z,951.86
2018-09-11T09:21:32.321Z,951.87
2018-09-11T09:22:41.733Z,951.92
2018-09-11T09:23:49.685Z,951.89
2018-09-11T09:24:57.731Z,951.89
2018-09-11T09:26:05.806Z,951.89
2018-09-11T09:27:14.300Z,951.87
2018-09-11T09:28:22.044Z,951.86
2018-09-11T09:29:30.014Z,951.88
2018-09-11T09:30:38.094Z,951.86
2018-09-11T09:31:46.154Z,951.85
2018-09-11T09:32:54.322Z,951.87
2018-09-11T09:34:02.316Z,951.87
2018-09-11T09:35:10.469Z,951.91
2018-09-11T09:36:18.548Z,951.87
2018-09-11T09:37:26.516Z,951.89
2018-09-11T09:38:34.644Z,951.84
2018-09-11T09:39:42.719Z,951.84
2018-09-11T09:40:50.741Z,951.90
2018-09-11T09:41:58.802Z,951.83
2018-09-11T09:43:06.877Z,951.82
2018-09-11T09:44:15.231Z,951.77
2018-09-11T09:45:23.194Z,951.72
2018-09-11T09:46:31.280Z,951.72
2018-09-11T09:47:39.343Z,951.65
2018-09-11T09:48:47.425Z,951.70
2018-09-11T09:49:55.600Z,951.64
2018-09-11T09:51:03.656Z,951.63
2018-09-11T09:52:11.635Z,951.64
2018-09-11T09:53:19.708Z,951.63
2018-09-11T09:54:27.768Z,951.63
2018-09-11T09:55:35.938Z,951.63
2018-09-11T09:56:43.918Z,951.64
2018-09-11T09:57:52.242Z,951.63
2018-09-11T09:59:00.058Z,951.62
2018-09-11T10:00:08.136Z,951.67
2018-09-11T10:01:16.299Z,951.63
2018-09-11T10:02:24.531Z,951.61
2018-09-11T10:03:32.328Z,951.67
2018-09-11T10:04:40.475Z,951.62
2018-09-11T10:05:48.495Z,951.60
2018-09-11T10:06:56.661Z,951.55
2018-09-11T10:08:04.628Z,951.55
2018-09-11T10:09:12.815Z,951.51
2018-09-11T10:10:20.790Z,951.56
2018-09-11T10:11:28.868Z,951.54
2018-09-11T10:12:37.020Z,951.49
2018-09-11T10:13:45.386Z,951.47
2018-09-11T10:14:53.035Z,951.49
2018-09-11T10:16:01.122Z,951.49
2018-09-11T10:17:09.209Z,951.46
2018-09-11T10:18:17.375Z,951.51
2018-09-11T10:19:25.337Z,951.52
2018-09-11T10:20:33.444Z,951.52
2018-09-11T10:21:41.492Z,951.52
2018-09-11T10:22:50.468Z,951.50
2018-09-11T10:23:57.616Z,951.53
2018-09-11T10:25:05.705Z,951.56
2018-09-11T10:26:13.782Z,951.54
2018-09-11T10:27:21.837Z,951.54
2018-09-11T10:28:30.179Z,951.53
2018-09-11T10:29:37.989Z,951.56
2018-09-11T10:30:46.065Z,951.53
2018-09-11T10:31:54.125Z,951.50
2018-09-11T10:33:02.298Z,951.49
2018-09-11T10:34:10.268Z,951.50
2018-09-11T10:35:18.387Z,951.47
2018-09-11T10:36:26.424Z,951.50
2018-09-11T10:37:34.602Z,951.51
2018-09-11T10:38:42.805Z,951.52
2018-09-11T10:39:50.698Z,951.47
2018-09-11T10:40:58.715Z,951.45
2018-09-11T10:42:06.784Z,951.44
2018-09-11T10:43:14.854Z,951.46
2018-09-11T10:44:23.166Z,951.42
2018-09-11T10:45:31.015Z,951.45
2018-09-11T10:46:39.076Z,951.43
2018-09-11T10:47:47.144Z,951.40
2018-09-11T10:48:55.512Z,951.39
2018-09-11T10:50:03.378Z,951.39
2018-09-11T10:51:11.356Z,951.47
2018-09-11T10:52:19.429Z,951.40
2018-09-11T10:53:27.634Z,951.43
2018-09-11T10:54:35.847Z,951.40
2018-09-11T10:55:43.740Z,951.41
2018-09-11T10:56:51.719Z,951.41
2018-09-11T10:58:00.438Z,951.41
2018-09-11T10:59:08.203Z,951.35
2018-09-11T11:00:15.980Z,951.35
2018-09-11T11:01:24.180Z,951.26
2018-09-11T11:02:32.066Z,951.28
2018-09-11T11:03:40.147Z,951.28
2018-09-11T11:04:48.262Z,951.28
2018-09-11T11:05:56.285Z,951.26
2018-09-11T11:07:04.452Z,951.21
2018-09-11T11:08:12.681Z,951.17
2018-09-11T11:09:20.539Z,951.14
2018-09-11T11:10:28.585Z,951.17
2018-09-11T11:11:36.659Z,951.16
2018-09-11T11:12:44.754Z,951.17
2018-09-11T11:15:05.308Z,951.11
2018-09-11T11:16:13.609Z,951.11
2018-09-11T11:17:21.433Z,951.10
2018-09-11T11:18:29.512Z,951.10
2018-09-11T11:19:37.597Z,951.06
2018-09-11T11:20:46.285Z,951.09
2018-09-11T11:21:53.738Z,951.10
2018-09-11T11:23:01.876Z,951.10
2018-09-11T11:24:09.872Z,951.08
2018-09-11T11:25:17.941Z,951.05
2018-09-11T11:26:26.008Z,951.01
2018-09-11T11:27:34.092Z,951.01
2018-09-11T11:28:42.500Z,950.97
2018-09-11T11:29:50.231Z,950.97
2018-09-11T11:30:58.296Z,950.94
2018-09-11T11:32:06.391Z,950.87
2018-09-11T11:33:14.448Z,950.95
2018-09-11T11:34:22.620Z,950.94
2018-09-11T11:35:30.593Z,950.97
2018-09-11T11:36:38.798Z,950.94
2018-09-11T11:37:46.748Z,950.90
2018-09-11T11:38:54.907Z,950.97
2018-09-11T11:40:02.966Z,951.01
2018-09-11T11:41:10.940Z,950.98
2018-09-11T11:42:19.115Z,950.92
2018-09-11T11:43:27.101Z,950.92
2018-09-11T11:44:35.174Z,950.97
2018-09-11T11:45:43.327Z,950.95
2018-09-11T11:46:51.316Z,950.93
2018-09-11T11:47:59.396Z,950.87
2018-09-11T11:49:07.464Z,950.85
2018-09-11T11:50:15.542Z,950.87
2018-09-11T11:51:23.717Z,950.88
2018-09-11T11:52:31.688Z,950.86
2018-09-11T11:53:39.752Z,950.82
2018-09-11T11:54:47.925Z,950.78
2018-09-11T11:55:55.908Z,950.75
2018-09-11T11:57:04.062Z,950.74
2018-09-11T11:58:12.049Z,950.69
2018-09-11T11:59:21.232Z,950.72
2018-09-11T12:00:28.182Z,950.71
2018-09-11T12:01:36.366Z,950.60
2018-09-11T12:02:44.414Z,950.67
2018-09-11T12:03:52.393Z,950.68
2018-09-11T12:05:00.480Z,950.65
2018-09-11T12:06:09.480Z,950.67
2018-09-11T12:07:16.620Z,950.69
2018-09-11T12:08:25.002Z,950.71
2018-09-11T12:09:32.936Z,950.70
2018-09-11T12:10:41.134Z,950.74
2018-09-11T12:11:49.118Z,950.73
2018-09-11T12:12:57.283Z,950.78
2018-09-11T12:14:05.282Z,950.76
2018-09-11T12:15:13.411Z,950.74
2018-09-11T12:16:21.478Z,950.73
2018-09-11T12:17:34.524Z,950.72
2018-09-11T12:18:37.551Z,950.66
2018-09-11T12:19:45.631Z,950.66
2018-09-11T12:20:53.696Z,950.62
2018-09-11T12:22:01.864Z,950.69
2018-09-11T12:23:09.926Z,950.67
2018-09-11T12:24:17.918Z,950.68
2018-09-11T12:25:26.093Z,950.63
2018-09-11T12:26:34.066Z,950.64
2018-09-11T12:27:42.140Z,950.61
2018-09-11T12:28:50.566Z,950.59
2018-09-11T12:29:58.421Z,950.58
2018-09-11T12:31:06.500Z,950.61
2018-09-11T12:32:14.427Z,950.60
2018-09-11T12:33:22.572Z,950.67
2018-09-11T12:34:30.675Z,950.65
2018-09-11T12:35:38.650Z,950.61
2018-09-11T12:36:46.732Z,950.62
2018-09-11T12:39:07.090Z,950.64
2018-09-11T12:40:15.424Z,950.66
2018-09-11T12:41:23.205Z,950.58
2018-09-11T12:42:31.309Z,950.57
2018-09-11T12:43:39.394Z,950.60
2018-09-11T12:44:47.663Z,950.59
2018-09-11T12:45:55.999Z,950.61
2018-09-11T12:47:03.994Z,950.57
2018-09-11T12:48:12.241Z,950.56
2018-09-11T12:49:20.044Z,950.52
2018-09-11T12:50:28.023Z,950.52
2018-09-11T12:51:36.200Z,950.54
2018-09-11T12:52:44.204Z,950.59
2018-09-11T12:53:52.386Z,950.55
2018-09-11T12:55:00.315Z,950.52
2018-09-11T12:56:08.401Z,950.45
2018-09-11T12:57:16.582Z,950.50
2018-09-11T12:58:24.547Z,950.52
2018-09-11T12:59:32.649Z,950.54
2018-09-11T13:00:40.939Z,950.57
2018-09-11T13:01:48.762Z,950.56
2018-09-11T13:02:56.872Z,950.53
2018-09-11T13:04:04.953Z,950.55
2018-09-11T13:05:13.045Z,950.53
2018-09-11T13:06:21.054Z,950.51
2018-09-11T13:07:29.245Z,950.47
2018-09-11T13:08:37.467Z,950.48
2018-09-11T13:09:45.266Z,950.50
2018-09-11T13:10:53.391Z,950.52
2018-09-11T13:12:01.436Z,950.46
2018-09-11T13:13:09.562Z,950.41
2018-09-11T13:14:18.016Z,950.36
2018-09-11T13:15:25.831Z,950.36
2018-09-11T13:16:34.169Z,950.44
2018-09-11T13:17:42.068Z,950.37
2018-09-11T13:18:50.040Z,950.34
2018-09-11T13:19:58.125Z,950.33
2018-09-11T13:21:06.651Z,950.30
2018-09-11T13:22:14.263Z,950.28
2018-09-11T13:23:22.433Z,950.31
2018-09-11T13:24:30.524Z,950.29
2018-09-11T13:25:38.483Z,950.29
2018-09-11T13:26:46.563Z,950.31
2018-09-11T13:27:54.638Z,950.30
2018-09-11T13:29:02.783Z,950.32
2018-09-11T13:30:10.772Z,950.35
2018-09-11T13:31:18.835Z,950.33
2018-09-11T13:32:26.934Z,950.29
2018-09-11T13:33:34.992Z,950.32
2018-09-11T13:34:43.139Z,950.24
2018-09-11T13:35:51.155Z,950.30
2018-09-11T13:36:59.586Z,950.28
2018-09-11T13:38:07.290Z,950.24
2018-09-11T13:39:15.366Z,950.23
2018-09-11T13:40:23.504Z,950.23
2018-09-11T13:41:31.509Z,950.18
2018-09-11T13:42:39.576Z,950.16
2018-09-11T13:43:48.703Z,950.15
2018-09-11T13:44:55.719Z,950.13
2018-09-11T13:46:04.125Z,950.16
2018-09-11T13:47:12.995Z,950.16
2018-09-11T13:48:19.943Z,950.17
2018-09-11T13:49:28.021Z,950.14
2018-09-11T13:50:36.078Z,950.19
2018-09-11T13:51:44.938Z,950.18
2018-09-11T13:52:52.332Z,950.18
2018-09-11T13:54:00.575Z,950.20
2018-09-11T13:55:08.376Z,950.20
2018-09-11T13:56:16.468Z,950.16
2018-09-11T13:57:24.754Z,950.17
2018-09-11T13:58:32.665Z,950.17
2018-09-11T13:59:40.719Z,950.14
2018-09-11T14:00:49.233Z,950.11
2018-09-11T14:01:57.568Z,950.10
2018-09-11T14:03:06.440Z,950.12
2018-09-11T14:04:15.018Z,950.08
2018-09-11T14:05:21.958Z,950.15
2018-09-11T14:06:35.257Z,950.11
2018-09-11T14:07:39.250Z,950.12
2018-09-11T14:08:45.469Z,950.13
2018-09-11T14:09:53.517Z,950.13
2018-09-11T14:11:01.609Z,950.09
2018-09-11T14:12:09.674Z,950.08
2018-09-11T14:13:17.846Z,950.11
2018-09-11T14:14:25.832Z,950.12
2018-09-11T14:15:33.894Z,950.08
2018-09-11T14:16:41.967Z,950.11
2018-09-11T14:17:50.024Z,950.09
2018-09-11T14:18:58.196Z,950.06
2018-09-11T14:20:06.202Z,950.05
2018-09-11T14:21:14.531Z,950.07
2018-09-11T14:22:22.538Z,950.05
2018-09-11T14:23:30.577Z,950.05
2018-09-11T14:24:38.766Z,950.04
2018-09-11T14:25:47.005Z,950.03
2018-09-11T14:26:54.908Z,950.04
2018-09-11T14:28:02.861Z,950.04
2018-09-11T14:29:10.956Z,950.02
2018-09-11T14:30:19.115Z,950.12
2018-09-11T14:31:27.098Z,950.03